createdAt,value
2022-11-25T00:03:04.618Z,101148.66
2022-11-25T00:05:58.326Z,101160.03
2022-11-25T00:08:55.885Z,101156.69
2022-11-25T00:11:25.920Z,101156.75
2022-11-25T00:14:23.260Z,101149.97
2022-11-25T00:16:50.163Z,101152.47
2022-11-25T00:19:16.927Z,101156.13
2022-11-25T00:21:56.368Z,101157.94
2022-11-25T00:24:25.633Z,101156.28
2022-11-25T00:26:59.697Z,101147.72
2022-11-25T00:29:26.295Z,101153.00
2022-11-25T00:31:54.510Z,101153.97
2022-11-25T00:34:21.127Z,101155.72
2022-11-25T00:36:53.557Z,101144.63
2022-11-25T00:39:28.724Z,101144.72
2022-11-25T00:42:13.871Z,101145.66
2022-11-25T00:44:49.977Z,101147.47
2022-11-25T00:47:22.314Z,101153.56
2022-11-25T00:49:54.831Z,101151.00
2022-11-25T00:52:23.683Z,101155.38
2022-11-25T00:54:52.818Z,101157.13
2022-11-25T00:57:22.614Z,101162.34
2022-11-25T00:59:55.288Z,101164.09
2022-11-25T01:02:22.827Z,101156.41
2022-11-25T01:04:53.979Z,101163.28
2022-11-25T01:07:21.051Z,101169.38
2022-11-25T01:09:52.178Z,101162.53
2022-11-25T01:12:19.869Z,101163.41
2022-11-25T01:15:11.692Z,101161.72
2022-11-25T01:18:00.087Z,101160.84
2022-11-25T01:20:26.656Z,101157.31
2022-11-25T01:22:59.587Z,101163.41
2022-11-25T01:26:20.813Z,101154.81
2022-11-25T01:28:57.801Z,101141.78
2022-11-25T01:35:00.832Z,101145.38
2022-11-25T01:37:27.584Z,101143.63
2022-11-25T01:39:59.370Z,101122.09
2022-11-25T01:42:30.333Z,101132.47
2022-11-25T01:45:18.903Z,101126.50
2022-11-25T01:48:13.711Z,101117.06
2022-11-25T01:50:53.503Z,101106.69
2022-11-25T01:53:22.019Z,101098.13
2022-11-25T01:55:58.519Z,101117.13
2022-11-25T01:58:31.132Z,101112.84
2022-11-25T02:01:09.978Z,101114.53
2022-11-25T02:04:03.800Z,101125.00
2022-11-25T02:06:57.807Z,101127.63
2022-11-25T02:09:25.167Z,101145.75
2022-11-25T02:11:58.091Z,101131.03
2022-11-25T02:14:26.374Z,101113.91
2022-11-25T02:16:55.551Z,101119.94
2022-11-25T02:19:57.299Z,101122.56
2022-11-25T02:23:11.416Z,101113.94
2022-11-25T02:26:27.772Z,101107.94
2022-11-25T02:28:55.802Z,101107.94
2022-11-25T02:31:23.802Z,101104.44
2022-11-25T02:34:01.495Z,101094.88
2022-11-25T02:36:30.591Z,101104.38
2022-11-25T02:39:00.760Z,101113.88
2022-11-25T02:41:56.122Z,101116.47
2022-11-25T02:44:22.805Z,101116.44
2022-11-25T02:46:50.396Z,101117.34
2022-11-25T02:49:20.772Z,101119.06
2022-11-25T02:52:04.444Z,101109.50
2022-11-25T02:54:31.240Z,101125.91
2022-11-25T02:57:17.789Z,101114.69
2022-11-25T03:00:10.201Z,101112.09
2022-11-25T03:02:54.485Z,101107.75
2022-11-25T03:05:22.598Z,101104.28
2022-11-25T03:08:25.277Z,101115.44
2022-11-25T03:10:57.998Z,101116.22
2022-11-25T03:13:25.674Z,101120.59
2022-11-25T03:15:52.945Z,101115.41
2022-11-25T03:22:08.724Z,101117.06
2022-11-25T03:24:55.141Z,101116.06
2022-11-25T03:27:22.229Z,101138.53
2022-11-25T03:29:56.106Z,101130.69
2022-11-25T03:32:23.111Z,101135.00
2022-11-25T03:34:49.695Z,101127.28
2022-11-25T03:37:16.738Z,101131.66
2022-11-25T03:39:55.985Z,101133.31
2022-11-25T03:42:24.023Z,101137.59
2022-11-25T03:44:52.932Z,101132.31
2022-11-25T03:47:19.671Z,101131.44
2022-11-25T03:49:53.874Z,101132.31
2022-11-25T03:52:20.693Z,101126.25
2022-11-25T03:54:52.856Z,101124.44
2022-11-25T03:57:21.916Z,101132.97
2022-11-25T04:00:00.626Z,101131.16
2022-11-25T04:02:27.709Z,101139.88
2022-11-25T04:05:00.680Z,101136.38
2022-11-25T04:07:27.790Z,101134.59
2022-11-25T04:09:56.217Z,101140.66
2022-11-25T04:12:46.167Z,101141.47
2022-11-25T04:15:19.657Z,101135.44
2022-11-25T04:17:54.380Z,101139.72
2022-11-25T04:20:21.378Z,101137.94
2022-11-25T04:22:55.104Z,101143.97
2022-11-25T04:25:22.681Z,101137.88
2022-11-25T04:27:59.524Z,101142.97
2022-11-25T04:33:20.435Z,101135.06
2022-11-25T04:36:13.750Z,101142.91
2022-11-25T04:38:49.960Z,101139.38
2022-11-25T04:41:19.119Z,101140.19
2022-11-25T04:44:03.501Z,101136.78
2022-11-25T04:46:51.898Z,101113.44
2022-11-25T04:49:19.356Z,101125.59
2022-11-25T04:52:11.246Z,101122.03
2022-11-25T04:54:55.976Z,101121.94
2022-11-25T04:57:23.424Z,101128.81
2022-11-25T04:59:56.562Z,101133.16
2022-11-25T05:02:26.514Z,101134.88
2022-11-25T05:05:13.834Z,101140.03
2022-11-25T05:08:05.429Z,101143.44
2022-11-25T05:10:33.556Z,101148.53
2022-11-25T05:13:18.012Z,101145.94
2022-11-25T05:15:50.749Z,101145.00
2022-11-25T05:18:19.546Z,101146.66
2022-11-25T05:20:51.101Z,101148.34
2022-11-25T05:23:20.738Z,101146.44
2022-11-25T05:25:51.381Z,101157.69
2022-11-25T05:28:27.641Z,101155.81
2022-11-25T05:31:03.668Z,101150.63
2022-11-25T05:33:30.667Z,101151.50
2022-11-25T05:36:00.293Z,101150.56
2022-11-25T05:38:56.192Z,101152.28
2022-11-25T05:41:31.329Z,101154.94
2022-11-25T05:43:59.503Z,101148.91
2022-11-25T05:46:26.234Z,101149.81
2022-11-25T05:48:56.154Z,101143.00
2022-11-25T05:51:24.290Z,101150.81
2022-11-25T05:54:17.883Z,101143.09
2022-11-25T05:56:54.539Z,101146.59
2022-11-25T06:00:06.526Z,101141.53
2022-11-25T06:02:51.683Z,101146.75
2022-11-25T06:05:19.785Z,101148.53
2022-11-25T06:07:55.709Z,101142.47
2022-11-25T06:10:29.056Z,101138.88
2022-11-25T06:12:56.158Z,101148.44
2022-11-25T06:15:24.362Z,101147.53
2022-11-25T06:17:59.478Z,101138.97
2022-11-25T06:20:28.232Z,101137.28
2022-11-25T06:22:55.763Z,101139.94
2022-11-25T06:26:21.768Z,101146.97
2022-11-25T06:28:56.432Z,101135.75
2022-11-25T06:31:25.954Z,101142.72
2022-11-25T06:34:11.739Z,101128.97
2022-11-25T06:40:05.500Z,101137.03
2022-11-25T06:42:53.033Z,101138.78
2022-11-25T06:45:19.840Z,101131.88
2022-11-25T06:47:58.966Z,101136.31
2022-11-25T06:50:25.647Z,101145.88
2022-11-25T06:52:52.242Z,101146.84
2022-11-25T06:55:24.665Z,101145.97
2022-11-25T06:58:28.366Z,101149.50
2022-11-25T07:00:55.036Z,101145.19
2022-11-25T07:03:31.060Z,101140.84
2022-11-25T07:06:07.686Z,101146.09
2022-11-25T07:12:18.379Z,101169.50
2022-11-25T07:14:53.076Z,101159.91
2022-11-25T07:17:25.578Z,101154.75
2022-11-25T07:19:55.575Z,101161.66
2022-11-25T07:22:23.032Z,101162.63
2022-11-25T07:24:53.729Z,101171.34
2022-11-25T07:27:28.224Z,101168.81
2022-11-25T07:34:20.587Z,101165.53
2022-11-25T07:40:33.412Z,101168.44
2022-11-25T07:42:59.953Z,101172.91
2022-11-25T07:45:27.857Z,101176.50
2022-11-25T07:48:20.811Z,101167.06
2022-11-25T07:50:53.541Z,101175.84
2022-11-25T07:53:21.112Z,101175.91
2022-11-25T07:56:04.048Z,101181.97
2022-11-25T07:58:30.646Z,101201.00
2022-11-25T08:00:59.503Z,101194.09
2022-11-25T08:03:26.151Z,101204.63
2022-11-25T08:06:28.151Z,101193.47
2022-11-25T08:09:18.816Z,101196.22
2022-11-25T08:11:54.627Z,101188.50
2022-11-25T08:14:21.284Z,101197.25
2022-11-25T08:16:51.304Z,101201.59
2022-11-25T08:20:08.896Z,101205.13
2022-11-25T08:22:57.894Z,101201.75
2022-11-25T08:25:59.873Z,101200.97
2022-11-25T08:28:26.671Z,101201.78
2022-11-25T08:31:01.389Z,101207.94
2022-11-25T08:33:31.142Z,101209.72
2022-11-25T08:36:07.180Z,101199.44
2022-11-25T08:38:34.697Z,101201.34
2022-11-25T08:41:01.212Z,101199.69
2022-11-25T08:43:29.681Z,101217.00
2022-11-25T08:47:01.301Z,101204.88
2022-11-25T08:49:31.177Z,101198.94
2022-11-25T08:52:24.055Z,101195.69
2022-11-25T08:59:00.533Z,101194.25
2022-11-25T09:21:12.163Z,101203.97
2022-11-25T09:37:16.095Z,101195.72
2022-11-25T09:53:14.935Z,101226.28
2022-11-25T10:15:05.598Z,101228.34
2022-11-25T10:30:13.830Z,101229.28
2022-11-25T10:33:28.927Z,101240.59
2022-11-25T10:36:34.903Z,101236.19
2022-11-25T10:39:13.676Z,101239.69
2022-11-25T10:41:59.612Z,101238.00
2022-11-25T10:48:13.765Z,101251.91
2022-11-25T11:08:51.554Z,101246.81
2022-11-25T11:11:21.190Z,101241.63
2022-11-25T11:14:14.165Z,101248.59
2022-11-25T11:16:53.971Z,101249.47
2022-11-25T11:19:24.065Z,101250.38
2022-11-25T11:22:20.808Z,101252.97
2022-11-25T11:25:21.704Z,101259.06
2022-11-25T11:28:24.398Z,101258.19
2022-11-25T11:31:01.778Z,101263.44
2022-11-25T11:39:09.428Z,101278.22
2022-11-25T11:42:26.118Z,101262.59
2022-11-25T11:45:29.929Z,101264.38
2022-11-25T11:48:07.930Z,101260.94
2022-11-25T11:50:57.590Z,101260.09
2022-11-25T11:53:25.924Z,101263.53
2022-11-25T11:56:35.254Z,101258.34
2022-11-25T12:00:15.509Z,101257.50
2022-11-25T12:06:59.849Z,101258.34
2022-11-25T12:09:32.930Z,101267.06
2022-11-25T12:12:32.750Z,101264.47
2022-11-25T12:15:29.393Z,101270.53
2022-11-25T12:26:16.180Z,101267.13
2022-11-25T12:33:27.784Z,101285.34
2022-11-25T12:36:55.965Z,101280.13
2022-11-25T12:40:05.817Z,101281.03
2022-11-25T13:18:55.286Z,101299.38
2022-11-25T13:21:25.131Z,101302.00
2022-11-25T13:24:30.148Z,101296.81
2022-11-25T13:27:01.709Z,101303.75
2022-11-25T13:29:30.328Z,101309.84
2022-11-25T13:32:36.852Z,101315.94
2022-11-25T13:35:36.408Z,101320.25
2022-11-25T13:38:30.165Z,101314.19
2022-11-25T13:41:15.739Z,101312.44
2022-11-25T13:44:35.127Z,101325.50
2022-11-25T13:47:31.022Z,101323.75
2022-11-25T13:51:12.986Z,101335.03
2022-11-25T13:54:04.690Z,101320.25
2022-11-25T13:56:35.576Z,101328.09
2022-11-25T13:59:11.964Z,101335.06
2022-11-25T14:02:18.763Z,101335.91
2022-11-25T14:05:20.918Z,101342.03
2022-11-25T14:08:08.226Z,101340.31
2022-11-25T14:11:03.554Z,101341.16
2022-11-25T14:14:07.821Z,101345.53
2022-11-25T14:16:55.169Z,101346.38
2022-11-25T14:20:13.206Z,101347.25
2022-11-25T14:23:22.705Z,101358.56
2022-11-25T14:27:03.282Z,101360.28
2022-11-25T14:29:33.194Z,101360.28
2022-11-25T14:32:20.081Z,101363.75
2022-11-25T14:35:20.432Z,101368.97
2022-11-25T14:38:08.073Z,101362.91
2022-11-25T14:41:07.442Z,101376.78
2022-11-25T14:44:24.462Z,101369.88
2022-11-25T14:47:04.761Z,101368.13
2022-11-25T14:50:33.715Z,101380.28
2022-11-25T14:53:05.091Z,101382.88
2022-11-25T14:55:32.131Z,101385.50
2022-11-25T14:58:12.864Z,101392.44
2022-11-25T15:01:16.769Z,101395.03
2022-11-25T15:04:33.956Z,101402.00
2022-11-25T15:07:24.050Z,101397.63
2022-11-25T15:10:30.001Z,101415.03
2022-11-25T15:13:16.018Z,101415.88
2022-11-25T15:16:23.341Z,101411.53
2022-11-25T15:20:11.352Z,101417.63
2022-11-25T15:23:02.021Z,101414.13
2022-11-25T15:25:28.389Z,101420.16
2022-11-25T15:27:59.774Z,101418.44
2022-11-25T15:30:38.037Z,101423.66
2022-11-25T15:33:05.752Z,101422.75
2022-11-25T15:35:34.045Z,101434.94
2022-11-25T15:41:33.895Z,101438.41
2022-11-25T15:44:39.474Z,101441.00
2022-11-25T15:47:25.916Z,101442.75
2022-11-25T15:50:11.892Z,101453.16
2022-11-25T16:01:16.231Z,101435.72
2022-11-25T16:07:24.785Z,101453.13
2022-11-25T16:10:01.727Z,101459.19
2022-11-25T16:12:38.669Z,101456.56
2022-11-25T16:15:16.842Z,101459.19
2022-11-25T16:18:38.569Z,101468.75
2022-11-25T16:21:08.292Z,101469.59
2022-11-25T16:24:01.517Z,101467.00
2022-11-25T16:26:34.347Z,101476.56
2022-11-25T16:29:08.767Z,101477.41
2022-11-25T16:31:35.929Z,101490.47
2022-11-25T16:34:19.228Z,101502.59
2022-11-25T16:37:00.091Z,101502.63
2022-11-25T16:39:26.895Z,101510.44
2022-11-25T16:42:04.064Z,101516.53
2022-11-25T16:44:34.342Z,101523.50
2022-11-25T16:47:02.029Z,101514.78
2022-11-25T16:49:30.482Z,101518.31
2022-11-25T16:52:03.432Z,101523.50
2022-11-25T16:54:31.590Z,101522.63
2022-11-25T16:57:00.041Z,101526.13
2022-11-25T16:59:33.861Z,101526.97
2022-11-25T17:02:13.724Z,101523.50
2022-11-25T17:04:40.318Z,101529.59
2022-11-25T17:07:35.710Z,101535.66
2022-11-25T17:10:04.263Z,101537.38
2022-11-25T17:12:38.086Z,101540.84
2022-11-25T17:15:11.965Z,101544.31
2022-11-25T17:20:26.470Z,101540.81
2022-11-25T17:23:10.537Z,101546.94
2022-11-25T17:26:29.415Z,101544.34
2022-11-25T17:29:05.473Z,101539.94
2022-11-25T22:13:35.158Z,101878.22
2022-11-25T22:23:30.248Z,101884.28
2022-11-25T22:33:26.813Z,101878.03
2022-11-25T22:40:36.185Z,101899.75
2022-11-25T22:53:36.712Z,101908.06
2022-11-25T22:58:31.161Z,101921.09
2022-11-25T22:59:41.755Z,101922.75
2022-11-25T23:10:18.932Z,101935.50
2022-11-25T23:24:36.547Z,101945.25
2022-11-25T23:31:35.215Z,101964.22
2022-11-25T23:37:33.397Z,101972.66
2022-11-25T23:40:30.377Z,101977.75
2022-11-25T23:50:40.829Z,101965.94
2022-11-25T23:57:30.726Z,101995.25
